sensor_id;sensor_type;location;lat;lon;timestamp;P1;durP1;ratioP1;P2;durP2;ratioP2
50779;SDS011;36748;37.428;-121.972;2022-07-24T00:00:03;2.63;;;0.82;;
50779;SDS011;36748;37.428;-121.972;2022-07-24T00:02:31;1.17;;;0.80;;
50779;SDS011;36748;37.428;-121.972;2022-07-24T00:04:57;1.70;;;1.00;;
50779;SDS011;36748;37.428;-121.972;2022-07-24T00:07:25;1.10;;;0.80;;
50779;SDS011;36748;37.428;-121.972;2022-07-24T00:09:51;0.98;;;0.90;;
50779;SDS011;36748;37.428;-121.972;2022-07-24T00:12:17;0.70;;;0.65;;
50779;SDS011;36748;37.428;-121.972;2022-07-24T00:14:44;1.10;;;0.73;;
50779;SDS011;36748;37.428;-121.972;2022-07-24T00:17:10;1.40;;;0.80;;
50779;SDS011;36748;37.428;-121.972;2022-07-24T00:19:36;1.20;;;0.70;;
50779;SDS011;36748;37.428;-121.972;2022-07-24T00:22:02;2.67;;;1.20;;
50779;SDS011;36748;37.428;-121.972;2022-07-24T00:24:29;0.82;;;0.70;;
50779;SDS011;36748;37.428;-121.972;2022-07-24T00:26:55;1.08;;;0.75;;
50779;SDS011;36748;37.428;-121.972;2022-07-24T00:29:21;1.42;;;0.80;;
50779;SDS011;36748;37.428;-121.972;2022-07-24T00:31:47;2.42;;;0.80;;
50779;SDS011;36748;37.428;-121.972;2022-07-24T00:34:13;1.15;;;0.90;;
50779;SDS011;36748;37.428;-121.972;2022-07-24T00:36:39;1.02;;;0.90;;
50779;SDS011;36748;37.428;-121.972;2022-07-24T00:39:08;1.20;;;0.90;;
50779;SDS011;36748;37.428;-121.972;2022-07-24T00:41:35;1.75;;;1.10;;
50779;SDS011;36748;37.428;-121.972;2022-07-24T00:44:08;1.10;;;0.82;;
50779;SDS011;36748;37.428;-121.972;2022-07-24T00:46:36;1.17;;;0.80;;
50779;SDS011;36748;37.428;-121.972;2022-07-24T00:49:06;1.70;;;1.00;;
50779;SDS011;36748;37.428;-121.972;2022-07-24T00:51:34;1.10;;;0.95;;
50779;SDS011;36748;37.428;-121.972;2022-07-24T00:54:04;1.58;;;0.85;;
50779;SDS011;36748;37.428;-121.972;2022-07-24T00:56:30;1.55;;;1.00;;
50779;SDS011;36748;37.428;-121.972;2022-07-24T00:58:57;1.90;;;0.98;;
50779;SDS011;36748;37.428;-121.972;2022-07-24T01:01:23;1.80;;;0.85;;
50779;SDS011;36748;37.428;-121.972;2022-07-24T01:03:49;1.48;;;0.90;;
50779;SDS011;36748;37.428;-121.972;2022-07-24T01:06:16;1.95;;;0.70;;
50779;SDS011;36748;37.428;-121.972;2022-07-24T01:08:42;1.55;;;0.90;;
50779;SDS011;36748;37.428;-121.972;2022-07-24T01:11:11;1.73;;;0.90;;
50779;SDS011;36748;37.428;-121.972;2022-07-24T01:13:38;2.25;;;1.00;;
50779;SDS011;36748;37.428;-121.972;2022-07-24T01:16:05;1.05;;;0.82;;
50779;SDS011;36748;37.428;-121.972;2022-07-24T01:18:32;1.33;;;0.98;;
50779;SDS011;36748;37.428;-121.972;2022-07-24T01:20:58;1.52;;;1.00;;
50779;SDS011;36748;37.428;-121.972;2022-07-24T01:23:25;1.17;;;0.82;;
50779;SDS011;36748;37.428;-121.972;2022-07-24T01:25:51;1.15;;;1.05;;
50779;SDS011;36748;37.428;-121.972;2022-07-24T01:28:17;1.67;;;0.90;;
50779;SDS011;36748;37.428;-121.972;2022-07-24T01:30:43;1.83;;;1.00;;
50779;SDS011;36748;37.428;-121.972;2022-07-24T01:33:10;1.33;;;0.90;;
50779;SDS011;36748;37.428;-121.972;2022-07-24T01:35:37;3.55;;;1.20;;
50779;SDS011;36748;37.428;-121.972;2022-07-24T01:38:03;1.13;;;0.88;;
50779;SDS011;36748;37.428;-121.972;2022-07-24T01:40:29;1.00;;;0.80;;
50779;SDS011;36748;37.428;-121.972;2022-07-24T01:42:55;1.55;;;1.23;;
50779;SDS011;36748;37.428;-121.972;2022-07-24T01:45:22;2.13;;;1.10;;
50779;SDS011;36748;37.428;-121.972;2022-07-24T01:47:48;1.98;;;0.95;;
50779;SDS011;36748;37.428;-121.972;2022-07-24T01:50:14;2.00;;;1.00;;
50779;SDS011;36748;37.428;-121.972;2022-07-24T01:52:41;1.80;;;1.10;;
50779;SDS011;36748;37.428;-121.972;2022-07-24T01:55:07;1.45;;;0.90;;
50779;SDS011;36748;37.428;-121.972;2022-07-24T01:57:34;1.52;;;1.02;;
50779;SDS011;36748;37.428;-121.972;2022-07-24T02:00:02;1.50;;;0.90;;
50779;SDS011;36748;37.428;-121.972;2022-07-24T02:02:30;1.52;;;1.00;;
50779;SDS011;36748;37.428;-121.972;2022-07-24T02:04:56;2.97;;;1.10;;
50779;SDS011;36748;37.428;-121.972;2022-07-24T02:07:23;1.67;;;1.00;;
50779;SDS011;36748;37.428;-121.972;2022-07-24T02:09:49;1.50;;;1.05;;
50779;SDS011;36748;37.428;-121.972;2022-07-24T02:12:15;1.33;;;0.90;;
50779;SDS011;36748;37.428;-121.972;2022-07-24T02:14:41;1.60;;;1.10;;
50779;SDS011;36748;37.428;-121.972;2022-07-24T02:17:07;2.53;;;1.20;;
50779;SDS011;36748;37.428;-121.972;2022-07-24T02:19:33;1.50;;;1.23;;
50779;SDS011;36748;37.428;-121.972;2022-07-24T02:22:00;1.67;;;1.00;;
50779;SDS011;36748;37.428;-121.972;2022-07-24T02:24:26;1.92;;;1.23;;
50779;SDS011;36748;37.428;-121.972;2022-07-24T02:26:52;1.85;;;1.23;;
50779;SDS011;36748;37.428;-121.972;2022-07-24T02:29:18;1.55;;;1.00;;
50779;SDS011;36748;37.428;-121.972;2022-07-24T02:31:44;1.50;;;0.93;;
50779;SDS011;36748;37.428;-121.972;2022-07-24T02:34:11;1.85;;;1.10;;
50779;SDS011;36748;37.428;-121.972;2022-07-24T02:36:37;2.28;;;1.40;;
50779;SDS011;36748;37.428;-121.972;2022-07-24T02:39:03;1.77;;;1.05;;
50779;SDS011;36748;37.428;-121.972;2022-07-24T02:41:30;1.83;;;1.08;;
50779;SDS011;36748;37.428;-121.972;2022-07-24T02:43:56;1.58;;;1.20;;
50779;SDS011;36748;37.428;-121.972;2022-07-24T02:46:22;3.22;;;1.40;;
50779;SDS011;36748;37.428;-121.972;2022-07-24T02:48:48;2.15;;;1.20;;
50779;SDS011;36748;37.428;-121.972;2022-07-24T02:51:15;1.60;;;0.93;;
50779;SDS011;36748;37.428;-121.972;2022-07-24T02:53:41;1.35;;;0.95;;
50779;SDS011;36748;37.428;-121.972;2022-07-24T02:56:07;1.98;;;1.05;;
50779;SDS011;36748;37.428;-121.972;2022-07-24T02:58:34;2.38;;;1.23;;
50779;SDS011;36748;37.428;-121.972;2022-07-24T03:01:00;3.08;;;1.75;;
50779;SDS011;36748;37.428;-121.972;2022-07-24T03:03:27;2.47;;;1.30;;
50779;SDS011;36748;37.428;-121.972;2022-07-24T03:05:53;1.83;;;1.25;;
50779;SDS011;36748;37.428;-121.972;2022-07-24T03:08:19;1.55;;;1.05;;
50779;SDS011;36748;37.428;-121.972;2022-07-24T03:10:45;2.10;;;1.33;;
50779;SDS011;36748;37.428;-121.972;2022-07-24T03:13:11;2.22;;;1.30;;
50779;SDS011;36748;37.428;-121.972;2022-07-24T03:15:37;3.45;;;1.27;;
50779;SDS011;36748;37.428;-121.972;2022-07-24T03:18:03;2.88;;;1.40;;
50779;SDS011;36748;37.428;-121.972;2022-07-24T03:20:29;1.27;;;1.15;;
50779;SDS011;36748;37.428;-121.972;2022-07-24T03:22:56;2.35;;;1.30;;
50779;SDS011;36748;37.428;-121.972;2022-07-24T03:25:23;3.13;;;1.30;;
50779;SDS011;36748;37.428;-121.972;2022-07-24T03:27:49;2.45;;;1.10;;
50779;SDS011;36748;37.428;-121.972;2022-07-24T03:30:16;2.10;;;1.15;;
50779;SDS011;36748;37.428;-121.972;2022-07-24T03:32:42;1.13;;;1.02;;
50779;SDS011;36748;37.428;-121.972;2022-07-24T03:35:09;3.47;;;1.52;;
50779;SDS011;36748;37.428;-121.972;2022-07-24T03:37:35;2.55;;;1.42;;
50779;SDS011;36748;37.428;-121.972;2022-07-24T03:40:03;3.17;;;1.27;;
50779;SDS011;36748;37.428;-121.972;2022-07-24T03:42:29;2.47;;;1.50;;
50779;SDS011;36748;37.428;-121.972;2022-07-24T03:44:56;2.20;;;1.27;;
50779;SDS011;36748;37.428;-121.972;2022-07-24T03:47:22;1.92;;;1.10;;
50779;SDS011;36748;37.428;-121.972;2022-07-24T03:49:48;2.45;;;1.27;;
50779;SDS011;36748;37.428;-121.972;2022-07-24T03:52:14;2.65;;;1.50;;
50779;SDS011;36748;37.428;-121.972;2022-07-24T03:54:40;2.15;;;1.40;;
50779;SDS011;36748;37.428;-121.972;2022-07-24T03:57:07;2.17;;;1.30;;
50779;SDS011;36748;37.428;-121.972;2022-07-24T03:59:34;2.60;;;1.23;;
50779;SDS011;36748;37.428;-121.972;2022-07-24T04:02:00;2.70;;;1.40;;
50779;SDS011;36748;37.428;-121.972;2022-07-24T04:04:26;2.88;;;1.67;;
50779;SDS011;36748;37.428;-121.972;2022-07-24T04:06:52;2.92;;;1.40;;
50779;SDS011;36748;37.428;-121.972;2022-07-24T04:09:18;2.05;;;1.20;;
50779;SDS011;36748;37.428;-121.972;2022-07-24T04:11:44;2.47;;;1.33;;
50779;SDS011;36748;37.428;-121.972;2022-07-24T04:14:11;2.25;;;1.38;;
50779;SDS011;36748;37.428;-121.972;2022-07-24T04:16:38;3.38;;;1.52;;
50779;SDS011;36748;37.428;-121.972;2022-07-24T04:19:04;1.95;;;1.30;;
50779;SDS011;36748;37.428;-121.972;2022-07-24T04:21:30;2.55;;;1.35;;
50779;SDS011;36748;37.428;-121.972;2022-07-24T04:23:56;2.72;;;1.52;;
50779;SDS011;36748;37.428;-121.972;2022-07-24T04:26:22;2.95;;;1.38;;
50779;SDS011;36748;37.428;-121.972;2022-07-24T04:28:49;2.35;;;1.35;;
50779;SDS011;36748;37.428;-121.972;2022-07-24T04:31:15;8.30;;;1.88;;
50779;SDS011;36748;37.428;-121.972;2022-07-24T04:33:41;9.02;;;1.70;;
50779;SDS011;36748;37.428;-121.972;2022-07-24T04:36:07;16.08;;;2.30;;
50779;SDS011;36748;37.428;-121.972;2022-07-24T04:38:34;12.40;;;2.03;;
50779;SDS011;36748;37.428;-121.972;2022-07-24T04:41:00;9.15;;;1.73;;
50779;SDS011;36748;37.428;-121.972;2022-07-24T04:43:26;4.03;;;1.90;;
50779;SDS011;36748;37.428;-121.972;2022-07-24T04:45:53;9.25;;;2.15;;
50779;SDS011;36748;37.428;-121.972;2022-07-24T04:48:19;7.03;;;1.98;;
50779;SDS011;36748;37.428;-121.972;2022-07-24T04:50:45;5.13;;;1.90;;
50779;SDS011;36748;37.428;-121.972;2022-07-24T04:53:14;4.10;;;1.90;;
50779;SDS011;36748;37.428;-121.972;2022-07-24T04:55:40;7.10;;;2.30;;
50779;SDS011;36748;37.428;-121.972;2022-07-24T04:58:06;4.78;;;2.20;;
50779;SDS011;36748;37.428;-121.972;2022-07-24T05:00:32;5.85;;;2.28;;
50779;SDS011;36748;37.428;-121.972;2022-07-24T05:02:58;10.43;;;2.28;;
50779;SDS011;36748;37.428;-121.972;2022-07-24T05:05:25;5.57;;;1.88;;
50779;SDS011;36748;37.428;-121.972;2022-07-24T05:07:51;4.43;;;1.85;;
50779;SDS011;36748;37.428;-121.972;2022-07-24T05:10:17;10.93;;;2.42;;
50779;SDS011;36748;37.428;-121.972;2022-07-24T05:12:43;9.27;;;2.30;;
50779;SDS011;36748;37.428;-121.972;2022-07-24T05:15:09;12.57;;;2.30;;
50779;SDS011;36748;37.428;-121.972;2022-07-24T05:17:36;9.77;;;2.50;;
50779;SDS011;36748;37.428;-121.972;2022-07-24T05:20:03;7.78;;;2.22;;
50779;SDS011;36748;37.428;-121.972;2022-07-24T05:22:29;6.30;;;2.47;;
50779;SDS011;36748;37.428;-121.972;2022-07-24T05:24:55;8.50;;;2.15;;
50779;SDS011;36748;37.428;-121.972;2022-07-24T05:27:22;7.18;;;2.10;;
50779;SDS011;36748;37.428;-121.972;2022-07-24T05:29:48;8.80;;;2.13;;
50779;SDS011;36748;37.428;-121.972;2022-07-24T05:32:14;10.48;;;2.00;;
50779;SDS011;36748;37.428;-121.972;2022-07-24T05:34:41;8.05;;;2.20;;
50779;SDS011;36748;37.428;-121.972;2022-07-24T05:37:07;6.97;;;1.90;;
50779;SDS011;36748;37.428;-121.972;2022-07-24T05:39:34;6.07;;;2.53;;
50779;SDS011;36748;37.428;-121.972;2022-07-24T05:42:01;6.43;;;2.15;;
50779;SDS011;36748;37.428;-121.972;2022-07-24T05:44:27;5.28;;;1.67;;
50779;SDS011;36748;37.428;-121.972;2022-07-24T05:46:53;5.35;;;1.83;;
50779;SDS011;36748;37.428;-121.972;2022-07-24T05:49:19;6.07;;;1.90;;
50779;SDS011;36748;37.428;-121.972;2022-07-24T05:51:46;7.80;;;1.60;;
50779;SDS011;36748;37.428;-121.972;2022-07-24T05:54:12;5.10;;;1.65;;
50779;SDS011;36748;37.428;-121.972;2022-07-24T05:56:38;8.90;;;1.92;;
50779;SDS011;36748;37.428;-121.972;2022-07-24T05:59:04;5.32;;;1.90;;
50779;SDS011;36748;37.428;-121.972;2022-07-24T06:01:30;4.45;;;1.90;;
50779;SDS011;36748;37.428;-121.972;2022-07-24T06:03:57;6.15;;;2.10;;
50779;SDS011;36748;37.428;-121.972;2022-07-24T06:06:24;3.78;;;1.70;;
50779;SDS011;36748;37.428;-121.972;2022-07-24T06:08:50;4.85;;;1.90;;
50779;SDS011;36748;37.428;-121.972;2022-07-24T06:11:17;4.05;;;1.73;;
50779;SDS011;36748;37.428;-121.972;2022-07-24T06:13:43;5.07;;;2.00;;
50779;SDS011;36748;37.428;-121.972;2022-07-24T06:16:09;2.83;;;1.58;;
50779;SDS011;36748;37.428;-121.972;2022-07-24T06:18:35;4.88;;;1.90;;
50779;SDS011;36748;37.428;-121.972;2022-07-24T06:21:02;6.25;;;1.88;;
50779;SDS011;36748;37.428;-121.972;2022-07-24T06:23:29;7.07;;;2.08;;
50779;SDS011;36748;37.428;-121.972;2022-07-24T06:25:55;4.25;;;1.90;;
50779;SDS011;36748;37.428;-121.972;2022-07-24T06:28:21;5.45;;;1.90;;
50779;SDS011;36748;37.428;-121.972;2022-07-24T06:30:47;5.45;;;1.80;;
50779;SDS011;36748;37.428;-121.972;2022-07-24T06:33:13;4.85;;;2.00;;
50779;SDS011;36748;37.428;-121.972;2022-07-24T06:35:39;3.72;;;1.92;;
50779;SDS011;36748;37.428;-121.972;2022-07-24T06:38:06;2.33;;;1.65;;
50779;SDS011;36748;37.428;-121.972;2022-07-24T06:40:32;2.88;;;1.55;;
50779;SDS011;36748;37.428;-121.972;2022-07-24T06:42:59;4.10;;;1.52;;
50779;SDS011;36748;37.428;-121.972;2022-07-24T06:45:25;3.97;;;1.98;;
50779;SDS011;36748;37.428;-121.972;2022-07-24T06:47:51;4.60;;;2.00;;
50779;SDS011;36748;37.428;-121.972;2022-07-24T06:50:20;2.97;;;1.55;;
50779;SDS011;36748;37.428;-121.972;2022-07-24T06:52:46;3.13;;;1.60;;
50779;SDS011;36748;37.428;-121.972;2022-07-24T06:55:12;6.13;;;1.77;;
50779;SDS011;36748;37.428;-121.972;2022-07-24T06:57:38;3.92;;;1.70;;
50779;SDS011;36748;37.428;-121.972;2022-07-24T07:00:05;3.85;;;1.88;;
50779;SDS011;36748;37.428;-121.972;2022-07-24T07:02:34;2.80;;;1.63;;
50779;SDS011;36748;37.428;-121.972;2022-07-24T07:05:00;4.43;;;1.52;;
50779;SDS011;36748;37.428;-121.972;2022-07-24T07:07:26;4.05;;;1.90;;
50779;SDS011;36748;37.428;-121.972;2022-07-24T07:09:52;5.90;;;2.28;;
50779;SDS011;36748;37.428;-121.972;2022-07-24T07:12:19;3.90;;;1.75;;
50779;SDS011;36748;37.428;-121.972;2022-07-24T07:14:45;4.80;;;1.67;;
50779;SDS011;36748;37.428;-121.972;2022-07-24T07:17:11;4.65;;;1.73;;
50779;SDS011;36748;37.428;-121.972;2022-07-24T07:19:37;3.75;;;1.67;;
50779;SDS011;36748;37.428;-121.972;2022-07-24T07:22:03;3.20;;;1.70;;
50779;SDS011;36748;37.428;-121.972;2022-07-24T07:24:29;3.42;;;1.67;;
50779;SDS011;36748;37.428;-121.972;2022-07-24T07:26:56;4.63;;;1.70;;
50779;SDS011;36748;37.428;-121.972;2022-07-24T07:29:22;3.60;;;1.75;;
50779;SDS011;36748;37.428;-121.972;2022-07-24T07:31:48;5.75;;;1.80;;
50779;SDS011;36748;37.428;-121.972;2022-07-24T07:34:14;3.22;;;1.67;;
50779;SDS011;36748;37.428;-121.972;2022-07-24T07:36:40;3.58;;;1.77;;
50779;SDS011;36748;37.428;-121.972;2022-07-24T07:39:06;4.82;;;1.77;;
50779;SDS011;36748;37.428;-121.972;2022-07-24T07:41:33;3.45;;;1.70;;
50779;SDS011;36748;37.428;-121.972;2022-07-24T07:43:59;4.63;;;2.03;;
50779;SDS011;36748;37.428;-121.972;2022-07-24T07:46:26;3.40;;;1.77;;
50779;SDS011;36748;37.428;-121.972;2022-07-24T07:48:53;2.05;;;1.35;;
50779;SDS011;36748;37.428;-121.972;2022-07-24T07:51:19;6.18;;;1.92;;
50779;SDS011;36748;37.428;-121.972;2022-07-24T07:53:46;3.97;;;1.80;;
50779;SDS011;36748;37.428;-121.972;2022-07-24T07:56:12;3.03;;;1.73;;
50779;SDS011;36748;37.428;-121.972;2022-07-24T07:58:38;3.97;;;1.83;;
50779;SDS011;36748;37.428;-121.972;2022-07-24T08:01:05;3.63;;;1.58;;
50779;SDS011;36748;37.428;-121.972;2022-07-24T08:03:37;3.42;;;1.83;;
50779;SDS011;36748;37.428;-121.972;2022-07-24T08:06:04;3.28;;;1.65;;
50779;SDS011;36748;37.428;-121.972;2022-07-24T08:08:30;3.50;;;1.77;;
50779;SDS011;36748;37.428;-121.972;2022-07-24T08:10:56;4.05;;;1.85;;
50779;SDS011;36748;37.428;-121.972;2022-07-24T08:13:22;4.20;;;1.90;;
50779;SDS011;36748;37.428;-121.972;2022-07-24T08:15:49;8.27;;;2.28;;
50779;SDS011;36748;37.428;-121.972;2022-07-24T08:18:15;4.13;;;1.83;;
50779;SDS011;36748;37.428;-121.972;2022-07-24T08:20:41;4.25;;;1.75;;
50779;SDS011;36748;37.428;-121.972;2022-07-24T08:23:09;4.22;;;2.00;;
50779;SDS011;36748;37.428;-121.972;2022-07-24T08:25:36;3.50;;;1.88;;
50779;SDS011;36748;37.428;-121.972;2022-07-24T08:28:03;2.75;;;1.73;;
50779;SDS011;36748;37.428;-121.972;2022-07-24T08:30:29;5.93;;;2.25;;
50779;SDS011;36748;37.428;-121.972;2022-07-24T08:32:55;3.65;;;2.17;;
50779;SDS011;36748;37.428;-121.972;2022-07-24T08:35:21;5.47;;;2.13;;
50779;SDS011;36748;37.428;-121.972;2022-07-24T08:37:48;5.03;;;2.25;;
50779;SDS011;36748;37.428;-121.972;2022-07-24T08:40:15;7.07;;;2.50;;
50779;SDS011;36748;37.428;-121.972;2022-07-24T08:42:41;3.20;;;2.05;;
50779;SDS011;36748;37.428;-121.972;2022-07-24T08:45:08;4.93;;;2.42;;
50779;SDS011;36748;37.428;-121.972;2022-07-24T08:47:34;6.75;;;2.33;;
50779;SDS011;36748;37.428;-121.972;2022-07-24T08:50:02;5.43;;;2.05;;
50779;SDS011;36748;37.428;-121.972;2022-07-24T08:52:29;4.32;;;2.03;;
50779;SDS011;36748;37.428;-121.972;2022-07-24T08:54:55;5.53;;;2.15;;
50779;SDS011;36748;37.428;-121.972;2022-07-24T08:57:22;6.45;;;2.70;;
50779;SDS011;36748;37.428;-121.972;2022-07-24T08:59:48;4.25;;;2.05;;
50779;SDS011;36748;37.428;-121.972;2022-07-24T09:02:14;4.03;;;1.65;;
50779;SDS011;36748;37.428;-121.972;2022-07-24T09:04:47;5.15;;;2.33;;
50779;SDS011;36748;37.428;-121.972;2022-07-24T09:07:16;3.73;;;1.90;;
50779;SDS011;36748;37.428;-121.972;2022-07-24T09:09:44;3.88;;;2.10;;
50779;SDS011;36748;37.428;-121.972;2022-07-24T09:12:22;3.63;;;1.83;;
50779;SDS011;36748;37.428;-121.972;2022-07-24T09:14:48;3.60;;;1.98;;
50779;SDS011;36748;37.428;-121.972;2022-07-24T09:17:19;2.75;;;1.80;;
50779;SDS011;36748;37.428;-121.972;2022-07-24T09:19:59;3.40;;;1.88;;
50779;SDS011;36748;37.428;-121.972;2022-07-24T09:25:15;5.65;;;2.13;;
50779;SDS011;36748;37.428;-121.972;2022-07-24T09:27:45;3.45;;;1.60;;
50779;SDS011;36748;37.428;-121.972;2022-07-24T09:30:20;3.88;;;1.92;;
50779;SDS011;36748;37.428;-121.972;2022-07-24T09:35:28;3.65;;;1.65;;
50779;SDS011;36748;37.428;-121.972;2022-07-24T09:37:57;4.35;;;2.05;;
50779;SDS011;36748;37.428;-121.972;2022-07-24T09:40:32;4.70;;;1.80;;
50779;SDS011;36748;37.428;-121.972;2022-07-24T09:45:57;4.30;;;2.03;;
50779;SDS011;36748;37.428;-121.972;2022-07-24T09:48:25;3.63;;;1.98;;
50779;SDS011;36748;37.428;-121.972;2022-07-24T09:50:57;6.60;;;3.45;;
50779;SDS011;36748;37.428;-121.972;2022-07-24T09:53:25;5.55;;;3.08;;
50779;SDS011;36748;37.428;-121.972;2022-07-24T09:55:57;5.78;;;2.72;;
50779;SDS011;36748;37.428;-121.972;2022-07-24T09:58:26;5.45;;;2.35;;
50779;SDS011;36748;37.428;-121.972;2022-07-24T10:00:53;4.53;;;2.08;;
50779;SDS011;36748;37.428;-121.972;2022-07-24T10:03:24;5.03;;;2.65;;
50779;SDS011;36748;37.428;-121.972;2022-07-24T10:05:59;8.20;;;2.70;;
50779;SDS011;36748;37.428;-121.972;2022-07-24T10:08:27;6.22;;;2.40;;
50779;SDS011;36748;37.428;-121.972;2022-07-24T10:10:54;3.63;;;2.20;;
50779;SDS011;36748;37.428;-121.972;2022-07-24T10:13:21;6.60;;;2.70;;
50779;SDS011;36748;37.428;-121.972;2022-07-24T10:21:23;4.57;;;2.40;;
50779;SDS011;36748;37.428;-121.972;2022-07-24T10:29:07;5.93;;;2.75;;
50779;SDS011;36748;37.428;-121.972;2022-07-24T10:31:42;5.38;;;2.30;;
50779;SDS011;36748;37.428;-121.972;2022-07-24T10:36:45;3.42;;;1.88;;
50779;SDS011;36748;37.428;-121.972;2022-07-24T10:39:25;9.60;;;2.70;;
50779;SDS011;36748;37.428;-121.972;2022-07-24T10:42:00;4.93;;;2.42;;
50779;SDS011;36748;37.428;-121.972;2022-07-24T10:44:28;7.25;;;2.47;;
50779;SDS011;36748;37.428;-121.972;2022-07-24T10:49:44;6.35;;;2.40;;
50779;SDS011;36748;37.428;-121.972;2022-07-24T10:52:23;4.75;;;2.22;;
50779;SDS011;36748;37.428;-121.972;2022-07-24T11:00:33;6.40;;;2.53;;
50779;SDS011;36748;37.428;-121.972;2022-07-24T11:03:04;3.13;;;1.92;;
50779;SDS011;36748;37.428;-121.972;2022-07-24T11:05:38;4.97;;;2.20;;
50779;SDS011;36748;37.428;-121.972;2022-07-24T11:10:50;7.07;;;2.47;;
50779;SDS011;36748;37.428;-121.972;2022-07-24T11:21:33;4.93;;;2.50;;
50779;SDS011;36748;37.428;-121.972;2022-07-24T11:26:48;3.92;;;2.00;;
50779;SDS011;36748;37.428;-121.972;2022-07-24T11:29:23;6.13;;;2.17;;
50779;SDS011;36748;37.428;-121.972;2022-07-24T11:31:56;7.30;;;2.20;;
50779;SDS011;36748;37.428;-121.972;2022-07-24T11:34:26;7.10;;;2.30;;
50779;SDS011;36748;37.428;-121.972;2022-07-24T11:36:54;5.80;;;2.13;;
50779;SDS011;36748;37.428;-121.972;2022-07-24T11:44:29;4.20;;;1.95;;
50779;SDS011;36748;37.428;-121.972;2022-07-24T11:47:05;3.92;;;2.10;;
50779;SDS011;36748;37.428;-121.972;2022-07-24T11:49:58;3.08;;;1.75;;
50779;SDS011;36748;37.428;-121.972;2022-07-24T11:55:03;2.70;;;1.85;;
50779;SDS011;36748;37.428;-121.972;2022-07-24T11:57:36;4.35;;;2.13;;
50779;SDS011;36748;37.428;-121.972;2022-07-24T12:00:08;3.78;;;2.15;;
50779;SDS011;36748;37.428;-121.972;2022-07-24T12:02:46;3.33;;;2.10;;
50779;SDS011;36748;37.428;-121.972;2022-07-24T12:05:24;2.08;;;1.48;;
50779;SDS011;36748;37.428;-121.972;2022-07-24T12:07:56;2.38;;;1.73;;
50779;SDS011;36748;37.428;-121.972;2022-07-24T12:10:24;6.32;;;2.08;;
50779;SDS011;36748;37.428;-121.972;2022-07-24T12:12:51;3.35;;;1.77;;
50779;SDS011;36748;37.428;-121.972;2022-07-24T12:15:21;4.55;;;2.13;;
50779;SDS011;36748;37.428;-121.972;2022-07-24T12:17:58;3.03;;;1.80;;
50779;SDS011;36748;37.428;-121.972;2022-07-24T12:20:37;3.38;;;1.83;;
50779;SDS011;36748;37.428;-121.972;2022-07-24T12:23:06;3.40;;;1.80;;
50779;SDS011;36748;37.428;-121.972;2022-07-24T12:25:36;3.50;;;1.60;;
50779;SDS011;36748;37.428;-121.972;2022-07-24T12:28:04;2.75;;;1.80;;
50779;SDS011;36748;37.428;-121.972;2022-07-24T12:30:36;3.60;;;1.50;;
50779;SDS011;36748;37.428;-121.972;2022-07-24T12:33:08;2.20;;;1.70;;
50779;SDS011;36748;37.428;-121.972;2022-07-24T12:35:56;3.35;;;1.80;;
50779;SDS011;36748;37.428;-121.972;2022-07-24T12:38:37;1.85;;;1.38;;
50779;SDS011;36748;37.428;-121.972;2022-07-24T12:41:05;3.25;;;1.73;;
50779;SDS011;36748;37.428;-121.972;2022-07-24T12:43:46;1.50;;;1.40;;
50779;SDS011;36748;37.428;-121.972;2022-07-24T12:46:23;1.95;;;1.60;;
50779;SDS011;36748;37.428;-121.972;2022-07-24T12:48:57;1.98;;;1.52;;
50779;SDS011;36748;37.428;-121.972;2022-07-24T12:51:25;3.60;;;1.80;;
50779;SDS011;36748;37.428;-121.972;2022-07-24T12:53:52;2.38;;;1.60;;
50779;SDS011;36748;37.428;-121.972;2022-07-24T12:56:19;3.20;;;1.70;;
50779;SDS011;36748;37.428;-121.972;2022-07-24T12:58:59;1.92;;;1.35;;
50779;SDS011;36748;37.428;-121.972;2022-07-24T13:01:47;3.15;;;1.38;;
50779;SDS011;36748;37.428;-121.972;2022-07-24T13:04:16;2.58;;;1.40;;
50779;SDS011;36748;37.428;-121.972;2022-07-24T13:06:44;2.15;;;1.48;;
50779;SDS011;36748;37.428;-121.972;2022-07-24T13:09:12;3.08;;;1.60;;
50779;SDS011;36748;37.428;-121.972;2022-07-24T13:11:39;2.33;;;1.30;;
50779;SDS011;36748;37.428;-121.972;2022-07-24T13:14:07;1.42;;;1.13;;
50779;SDS011;36748;37.428;-121.972;2022-07-24T13:16:34;2.50;;;1.33;;
50779;SDS011;36748;37.428;-121.972;2022-07-24T13:19:03;1.20;;;1.10;;
50779;SDS011;36748;37.428;-121.972;2022-07-24T13:21:30;2.65;;;1.35;;
50779;SDS011;36748;37.428;-121.972;2022-07-24T13:23:56;2.50;;;1.13;;
50779;SDS011;36748;37.428;-121.972;2022-07-24T13:26:22;1.27;;;1.17;;
50779;SDS011;36748;37.428;-121.972;2022-07-24T13:28:49;1.92;;;1.25;;
50779;SDS011;36748;37.428;-121.972;2022-07-24T13:31:18;2.80;;;1.40;;
50779;SDS011;36748;37.428;-121.972;2022-07-24T13:33:48;1.65;;;1.20;;
50779;SDS011;36748;37.428;-121.972;2022-07-24T13:36:18;1.20;;;1.10;;
50779;SDS011;36748;37.428;-121.972;2022-07-24T13:38:44;1.65;;;1.02;;
50779;SDS011;36748;37.428;-121.972;2022-07-24T13:41:11;2.00;;;1.08;;
50779;SDS011;36748;37.428;-121.972;2022-07-24T13:43:37;2.10;;;1.17;;
50779;SDS011;36748;37.428;-121.972;2022-07-24T13:46:03;1.48;;;1.13;;
50779;SDS011;36748;37.428;-121.972;2022-07-24T13:48:30;1.15;;;1.05;;
50779;SDS011;36748;37.428;-121.972;2022-07-24T13:50:56;1.67;;;0.93;;
50779;SDS011;36748;37.428;-121.972;2022-07-24T13:53:23;1.45;;;1.20;;
50779;SDS011;36748;37.428;-121.972;2022-07-24T13:55:49;2.03;;;1.10;;
50779;SDS011;36748;37.428;-121.972;2022-07-24T13:58:16;1.20;;;1.10;;
50779;SDS011;36748;37.428;-121.972;2022-07-24T14:00:42;1.20;;;1.10;;
50779;SDS011;36748;37.428;-121.972;2022-07-24T14:03:08;1.75;;;1.05;;
50779;SDS011;36748;37.428;-121.972;2022-07-24T14:05:34;1.38;;;1.23;;
50779;SDS011;36748;37.428;-121.972;2022-07-24T14:08:01;1.42;;;1.10;;
50779;SDS011;36748;37.428;-121.972;2022-07-24T14:10:27;3.70;;;1.00;;
50779;SDS011;36748;37.428;-121.972;2022-07-24T14:12:53;2.10;;;1.20;;
50779;SDS011;36748;37.428;-121.972;2022-07-24T14:15:19;1.52;;;1.23;;
50779;SDS011;36748;37.428;-121.972;2022-07-24T14:17:45;1.23;;;1.13;;
50779;SDS011;36748;37.428;-121.972;2022-07-24T14:20:12;1.33;;;1.23;;
50779;SDS011;36748;37.428;-121.972;2022-07-24T14:22:39;1.10;;;1.00;;
50779;SDS011;36748;37.428;-121.972;2022-07-24T14:25:07;2.35;;;1.10;;
50779;SDS011;36748;37.428;-121.972;2022-07-24T14:27:34;1.30;;;1.20;;
50779;SDS011;36748;37.428;-121.972;2022-07-24T14:30:01;1.60;;;1.20;;
50779;SDS011;36748;37.428;-121.972;2022-07-24T14:32:28;1.65;;;1.00;;
50779;SDS011;36748;37.428;-121.972;2022-07-24T14:34:54;1.05;;;0.98;;
50779;SDS011;36748;37.428;-121.972;2022-07-24T14:37:21;1.70;;;0.80;;
50779;SDS011;36748;37.428;-121.972;2022-07-24T14:39:47;1.88;;;1.13;;
50779;SDS011;36748;37.428;-121.972;2022-07-24T14:42:13;1.05;;;0.90;;
50779;SDS011;36748;37.428;-121.972;2022-07-24T14:44:39;1.05;;;0.88;;
50779;SDS011;36748;37.428;-121.972;2022-07-24T14:47:05;2.42;;;1.00;;
50779;SDS011;36748;37.428;-121.972;2022-07-24T14:49:31;1.08;;;0.93;;
50779;SDS011;36748;37.428;-121.972;2022-07-24T14:51:57;1.70;;;0.80;;
50779;SDS011;36748;37.428;-121.972;2022-07-24T14:54:24;2.83;;;0.90;;
50779;SDS011;36748;37.428;-121.972;2022-07-24T14:56:50;1.65;;;1.05;;
50779;SDS011;36748;37.428;-121.972;2022-07-24T14:59:17;2.00;;;1.02;;
50779;SDS011;36748;37.428;-121.972;2022-07-24T15:01:43;1.25;;;0.95;;